createdAt,value
2023-12-16T00:00:42.708Z,15.00
2023-12-16T00:01:45.182Z,15.50
2023-12-16T00:02:42.998Z,15.80
2023-12-16T00:03:43.250Z,16.60
2023-12-16T00:04:43.377Z,16.70
2023-12-16T00:05:43.614Z,18.90
2023-12-16T00:06:43.771Z,19.50
2023-12-16T00:07:43.934Z,17.60
2023-12-16T00:08:44.100Z,18.50
2023-12-16T00:09:44.375Z,18.20
2023-12-16T00:10:44.516Z,18.20
2023-12-16T00:11:44.677Z,20.80
2023-12-16T00:12:44.892Z,18.70
2023-12-16T00:13:45.038Z,16.70
2023-12-16T00:14:45.245Z,19.90
2023-12-16T00:15:45.492Z,17.90
2023-12-16T00:16:45.629Z,16.80
2023-12-16T00:17:45.896Z,17.80
2023-12-16T00:18:46.186Z,18.60
2023-12-16T00:19:46.262Z,22.30
2023-12-16T00:20:46.473Z,20.90
2023-12-16T00:21:46.632Z,19.30
2023-12-16T00:22:46.885Z,19.50
2023-12-16T00:23:46.975Z,19.60
2023-12-16T00:24:47.160Z,18.80
2023-12-16T00:25:47.836Z,20.70
2023-12-16T00:26:47.521Z,19.80
2023-12-16T00:27:47.763Z,18.70
2023-12-16T00:28:47.901Z,18.00
2023-12-16T00:29:48.101Z,20.60
2023-12-16T00:30:48.406Z,20.20
2023-12-16T00:31:48.543Z,19.00
2023-12-16T00:32:48.712Z,19.90
2023-12-16T00:33:48.903Z,19.50
2023-12-16T00:34:49.044Z,17.80
2023-12-16T00:35:49.249Z,19.00
2023-12-16T00:36:49.491Z,18.50
2023-12-16T00:37:49.780Z,20.10
2023-12-16T00:38:49.809Z,20.30
2023-12-16T00:39:50.016Z,19.90
2023-12-16T00:40:50.212Z,18.00
2023-12-16T00:41:50.894Z,18.20
2023-12-16T00:42:50.586Z,20.00
2023-12-16T00:43:50.770Z,21.60
2023-12-16T00:44:50.950Z,19.90
2023-12-16T00:45:51.631Z,21.20
2023-12-16T00:46:51.328Z,19.10
2023-12-16T00:47:51.585Z,20.90
2023-12-16T00:48:51.750Z,19.00
2023-12-16T00:49:51.925Z,20.30
2023-12-16T00:50:52.061Z,19.20
2023-12-16T00:51:52.247Z,20.90
2023-12-16T00:52:52.477Z,18.30
2023-12-16T00:53:52.634Z,21.10
2023-12-16T00:54:53.850Z,20.20
2023-12-16T00:55:53.015Z,17.90
2023-12-16T00:56:53.185Z,18.80
2023-12-16T00:57:53.458Z,19.70
2023-12-16T00:58:53.580Z,19.10
2023-12-16T00:59:53.775Z,18.20
2023-12-16T01:00:54.039Z,18.60
2023-12-16T01:01:54.215Z,18.00
2023-12-16T01:02:54.349Z,18.70
2023-12-16T01:03:54.754Z,20.90
2023-12-16T01:04:54.835Z,19.70
2023-12-16T01:05:55.025Z,19.30
2023-12-16T01:06:55.207Z,17.30
2023-12-16T01:07:55.408Z,18.70
2023-12-16T01:08:55.553Z,19.30
2023-12-16T01:09:55.870Z,18.40
2023-12-16T01:10:55.950Z,18.00
2023-12-16T01:11:56.104Z,18.70
2023-12-16T01:12:56.357Z,20.10
2023-12-16T01:13:56.556Z,17.80
2023-12-16T01:14:57.796Z,20.70
2023-12-16T01:15:57.003Z,17.90
2023-12-16T01:16:57.144Z,19.60
2023-12-16T01:17:57.406Z,20.00
2023-12-16T01:18:57.668Z,17.60
2023-12-16T01:19:57.684Z,20.20
2023-12-16T01:20:57.922Z,17.40
2023-12-16T01:21:58.083Z,17.10
2023-12-16T01:22:58.290Z,21.20
2023-12-16T01:23:58.478Z,19.00
2023-12-16T01:24:58.693Z,20.60
2023-12-16T01:25:58.870Z,19.90
2023-12-16T01:26:58.956Z,20.80
2023-12-16T01:27:59.195Z,19.20
2023-12-16T01:29:00.385Z,18.50
2023-12-16T01:29:59.542Z,19.40
2023-12-16T01:30:59.859Z,21.60
2023-12-16T01:31:59.956Z,17.20
2023-12-16T01:33:00.234Z,19.40
2023-12-16T01:34:00.491Z,17.20
2023-12-16T01:35:00.508Z,21.30
2023-12-16T01:36:00.670Z,18.10
2023-12-16T01:37:00.942Z,19.70
2023-12-16T01:38:01.044Z,19.90
2023-12-16T01:39:01.223Z,19.60
2023-12-16T01:40:01.623Z,21.60
2023-12-16T01:41:01.679Z,20.40
2023-12-16T01:42:01.820Z,17.10
2023-12-16T01:43:02.049Z,16.00
2023-12-16T01:44:02.188Z,18.10
2023-12-16T01:45:02.384Z,20.20
2023-12-16T01:46:02.649Z,20.00
2023-12-16T01:47:02.827Z,19.10
2023-12-16T01:48:03.036Z,20.90
2023-12-16T01:49:03.253Z,20.20
2023-12-16T01:50:03.351Z,19.10
2023-12-16T01:51:04.473Z,20.70
2023-12-16T01:52:03.690Z,19.10
2023-12-16T01:53:03.920Z,17.70
2023-12-16T01:54:11.102Z,18.00
2023-12-16T01:55:04.293Z,20.40
2023-12-16T01:56:04.499Z,21.80
2023-12-16T01:57:04.662Z,16.60
2023-12-16T01:58:04.873Z,20.90
2023-12-16T01:59:05.053Z,20.20
2023-12-16T02:00:05.254Z,19.80
2023-12-16T02:01:05.594Z,21.60
2023-12-16T02:02:05.604Z,20.60
2023-12-16T02:03:05.774Z,19.80
2023-12-16T02:04:06.069Z,16.80
2023-12-16T02:05:06.149Z,18.70
2023-12-16T02:06:06.426Z,19.30
2023-12-16T02:07:06.682Z,18.10
2023-12-16T02:08:06.751Z,18.90
2023-12-16T02:09:06.958Z,18.40
2023-12-16T02:10:07.126Z,19.80
2023-12-16T02:11:07.314Z,20.30
2023-12-16T02:12:07.494Z,19.40
2023-12-16T02:13:07.790Z,22.10
2023-12-16T02:14:07.852Z,20.60
2023-12-16T02:15:08.073Z,20.20
2023-12-16T02:16:08.321Z,20.60
2023-12-16T02:17:08.458Z,21.80
2023-12-16T02:18:08.635Z,19.60
2023-12-16T02:19:08.854Z,20.20
2023-12-16T02:20:09.103Z,21.10
2023-12-16T02:21:09.174Z,21.20
2023-12-16T02:22:09.371Z,18.80
2023-12-16T02:23:09.519Z,18.30
2023-12-16T02:24:09.724Z,20.90
2023-12-16T02:25:09.925Z,20.60
2023-12-16T02:26:10.089Z,18.50
2023-12-16T02:27:10.264Z,19.80
2023-12-16T02:28:10.489Z,20.10
2023-12-16T02:29:10.623Z,22.10
2023-12-16T02:30:10.925Z,18.10
2023-12-16T02:31:11.151Z,21.20
2023-12-16T02:32:11.183Z,20.50
2023-12-16T02:33:11.442Z,20.50
2023-12-16T02:34:11.662Z,21.30
2023-12-16T02:35:11.754Z,20.40
2023-12-16T02:36:11.972Z,19.80
2023-12-16T02:37:12.135Z,22.10
2023-12-16T02:38:12.291Z,21.30
2023-12-16T02:39:12.485Z,22.30
2023-12-16T02:40:12.687Z,22.00
2023-12-16T02:41:12.862Z,20.80
2023-12-16T02:42:13.020Z,19.70
2023-12-16T02:43:13.286Z,20.60
2023-12-16T02:44:13.370Z,20.20
2023-12-16T02:45:13.547Z,23.70
2023-12-16T02:46:13.785Z,20.00
2023-12-16T02:47:13.960Z,21.90
2023-12-16T02:48:14.273Z,20.20
2023-12-16T02:49:14.409Z,22.20
2023-12-16T02:50:14.480Z,20.50
2023-12-16T02:51:14.672Z,23.10
2023-12-16T02:52:14.981Z,22.50
2023-12-16T02:53:15.013Z,21.80
2023-12-16T02:54:15.185Z,27.20
2023-12-16T02:55:15.427Z,20.40
2023-12-16T02:56:15.554Z,23.60
2023-12-16T02:57:15.749Z,21.70
2023-12-16T02:58:15.969Z,22.00
2023-12-16T02:59:16.108Z,23.50
2023-12-16T03:00:16.295Z,20.50
2023-12-16T03:01:16.595Z,20.90
2023-12-16T03:02:16.671Z,22.20
2023-12-16T03:03:16.907Z,23.80
2023-12-16T03:04:17.103Z,25.00
2023-12-16T03:05:17.244Z,22.60
2023-12-16T03:06:17.386Z,24.80
2023-12-16T03:07:17.622Z,21.90
2023-12-16T03:08:17.778Z,21.40
2023-12-16T03:09:17.966Z,20.10
2023-12-16T03:10:18.203Z,21.20
2023-12-16T03:11:18.325Z,22.70
2023-12-16T03:12:18.509Z,21.30
2023-12-16T03:13:18.727Z,22.60
2023-12-16T03:14:18.904Z,23.70
2023-12-16T03:15:19.095Z,22.30
2023-12-16T03:16:19.302Z,22.40
2023-12-16T03:17:19.431Z,21.10
2023-12-16T03:18:19.698Z,20.50
2023-12-16T03:19:19.921Z,20.80
2023-12-16T03:20:20.019Z,21.70
2023-12-16T03:21:20.225Z,22.20
2023-12-16T03:22:20.447Z,21.90
2023-12-16T03:23:20.579Z,22.90
2023-12-16T03:24:20.776Z,24.30
2023-12-16T03:25:20.938Z,24.10
2023-12-16T03:26:21.117Z,22.20
2023-12-16T03:27:21.283Z,23.10
2023-12-16T03:28:21.487Z,23.50
2023-12-16T03:29:21.763Z,24.60
2023-12-16T03:30:21.859Z,24.00
2023-12-16T03:31:22.019Z,22.50
2023-12-16T03:32:22.184Z,22.30
2023-12-16T03:33:22.484Z,22.50
2023-12-16T03:34:22.575Z,23.60
2023-12-16T03:35:22.718Z,23.10
2023-12-16T03:36:22.905Z,20.70
2023-12-16T03:37:23.107Z,22.80
2023-12-16T03:38:23.286Z,23.30
2023-12-16T03:39:23.456Z,23.10
2023-12-16T03:40:23.699Z,24.30
2023-12-16T03:41:23.863Z,22.90
2023-12-16T03:42:24.006Z,22.10
2023-12-16T03:43:24.236Z,22.50
2023-12-16T03:44:24.362Z,21.80
2023-12-16T03:45:24.555Z,24.90
2023-12-16T03:46:24.890Z,22.30
2023-12-16T03:47:24.934Z,24.60
2023-12-16T03:48:25.192Z,24.10
2023-12-16T03:49:25.372Z,23.20
2023-12-16T03:50:25.490Z,26.80
2023-12-16T03:51:25.668Z,23.10
2023-12-16T03:52:25.882Z,24.50
2023-12-16T03:53:26.050Z,25.00
2023-12-16T03:54:26.232Z,22.00
2023-12-16T03:55:26.439Z,23.20
2023-12-16T03:56:26.600Z,20.80
2023-12-16T03:57:26.775Z,25.10
2023-12-16T03:58:27.017Z,22.90
2023-12-16T03:59:27.136Z,25.00
2023-12-16T04:00:27.323Z,22.10
2023-12-16T04:01:27.576Z,21.80
2023-12-16T04:02:27.737Z,24.60
2023-12-16T04:03:27.905Z,23.20
2023-12-16T04:04:28.166Z,24.60
2023-12-16T04:05:28.293Z,24.80
2023-12-16T04:06:28.443Z,25.70
2023-12-16T04:07:28.665Z,22.30
2023-12-16T04:08:28.804Z,22.10
2023-12-16T04:09:29.027Z,21.70
2023-12-16T04:10:29.226Z,24.50
2023-12-16T04:11:29.342Z,23.20
2023-12-16T04:12:29.525Z,20.70
2023-12-16T04:13:29.741Z,20.50
2023-12-16T04:14:29.896Z,23.60
2023-12-16T04:15:30.075Z,21.90
2023-12-16T04:16:30.313Z,20.30
2023-12-16T04:17:30.497Z,22.90
2023-12-16T04:18:30.730Z,23.20
2023-12-16T04:19:30.872Z,22.30
2023-12-16T04:20:30.993Z,21.20
2023-12-16T04:21:31.165Z,21.40
2023-12-16T04:22:31.387Z,20.60
2023-12-16T04:23:31.543Z,22.50
2023-12-16T04:24:31.722Z,24.90
2023-12-16T04:25:31.997Z,22.00
2023-12-16T04:26:32.077Z,22.20
2023-12-16T04:27:32.266Z,22.50
2023-12-16T04:28:32.456Z,23.70
2023-12-16T04:29:32.634Z,23.70
2023-12-16T04:31:33.044Z,23.20
2023-12-16T04:32:33.207Z,25.30
2023-12-16T04:33:33.453Z,20.30
2023-12-16T04:34:33.664Z,21.80
2023-12-16T04:35:33.708Z,20.70
2023-12-16T04:36:33.924Z,22.60
2023-12-16T04:37:34.087Z,24.10
2023-12-16T04:38:34.266Z,21.00
2023-12-16T04:39:34.455Z,21.30
2023-12-16T04:40:34.753Z,21.20
2023-12-16T04:41:34.815Z,19.60
2023-12-16T04:42:35.009Z,22.00
2023-12-16T04:43:35.195Z,21.60
2023-12-16T04:44:35.371Z,21.80
2023-12-16T04:45:35.559Z,19.60
2023-12-16T04:46:35.756Z,21.80
2023-12-16T04:47:36.159Z,22.50
2023-12-16T04:48:36.317Z,23.40
2023-12-16T04:49:36.381Z,18.80
2023-12-16T04:50:36.523Z,20.30
2023-12-16T04:51:36.662Z,22.10
2023-12-16T04:52:36.838Z,22.90
2023-12-16T04:53:37.014Z,22.40
2023-12-16T04:54:37.205Z,19.70
2023-12-16T04:55:37.390Z,22.20
2023-12-16T04:56:37.571Z,20.80
2023-12-16T04:57:37.890Z,20.80
2023-12-16T04:58:37.966Z,19.20
2023-12-16T04:59:38.102Z,21.30
2023-12-16T05:00:38.282Z,20.50
2023-12-16T05:01:38.564Z,21.50
2023-12-16T05:02:38.658Z,20.60
2023-12-16T05:03:38.866Z,22.50
2023-12-16T05:04:39.058Z,20.70
2023-12-16T05:05:39.265Z,18.70
2023-12-16T05:06:39.404Z,19.30
2023-12-16T05:07:39.866Z,20.00
2023-12-16T05:08:39.778Z,19.30
2023-12-16T05:09:39.966Z,18.30
2023-12-16T05:10:40.123Z,20.70
2023-12-16T05:11:40.306Z,19.50
2023-12-16T05:12:40.493Z,21.30
2023-12-16T05:13:40.678Z,20.40
2023-12-16T05:14:40.846Z,18.50
2023-12-16T05:15:41.016Z,21.30
2023-12-16T05:16:41.201Z,20.80
2023-12-16T05:17:41.745Z,21.30
2023-12-16T05:18:41.631Z,20.20
2023-12-16T05:19:41.828Z,19.10
2023-12-16T05:20:41.917Z,20.70
2023-12-16T05:21:42.099Z,20.70
2023-12-16T05:22:42.283Z,16.50
2023-12-16T05:23:42.478Z,20.10
2023-12-16T05:24:42.690Z,19.10
2023-12-16T05:25:42.831Z,19.20
2023-12-16T05:26:43.017Z,20.80
2023-12-16T05:27:43.203Z,19.30
2023-12-16T05:28:43.380Z,19.50
2023-12-16T05:29:43.581Z,18.90
2023-12-16T05:30:43.823Z,19.20
2023-12-16T05:31:44.032Z,20.10
2023-12-16T05:32:44.156Z,18.10
2023-12-16T05:33:44.388Z,19.20
2023-12-16T05:34:44.496Z,19.60
2023-12-16T05:35:44.736Z,18.70
2023-12-16T05:36:44.863Z,21.80
2023-12-16T05:37:45.044Z,18.20
2023-12-16T05:38:45.281Z,21.00
2023-12-16T05:39:45.444Z,18.60
2023-12-16T05:40:45.614Z,17.90
2023-12-16T05:41:45.814Z,18.50
2023-12-16T05:42:46.077Z,20.30
2023-12-16T05:43:46.282Z,22.00
2023-12-16T05:44:46.369Z,18.80
2023-12-16T05:45:46.588Z,17.90
2023-12-16T05:46:46.761Z,16.30
2023-12-16T05:47:46.979Z,19.20
2023-12-16T05:48:47.212Z,21.40
2023-12-16T05:49:47.350Z,17.40
2023-12-16T05:50:47.485Z,18.50
2023-12-16T05:51:47.678Z,17.70
2023-12-16T05:52:47.828Z,17.10
2023-12-16T05:53:48.044Z,17.60
2023-12-16T05:54:48.256Z,18.80
2023-12-16T05:55:48.444Z,18.40
2023-12-16T05:56:48.596Z,18.70
2023-12-16T05:57:48.903Z,19.10
2023-12-16T05:58:48.992Z,17.40
2023-12-16T05:59:49.178Z,17.00
2023-12-16T06:00:49.503Z,18.50
2023-12-16T06:01:49.655Z,19.20
2023-12-16T06:02:49.800Z,15.60
2023-12-16T06:03:49.975Z,17.40
2023-12-16T06:04:50.142Z,17.80
2023-12-16T06:05:50.332Z,17.40
2023-12-16T06:06:50.531Z,17.40
2023-12-16T06:07:50.695Z,19.00
2023-12-16T06:08:50.873Z,18.30
2023-12-16T06:09:51.103Z,18.30
2023-12-16T06:10:51.270Z,16.80
2023-12-16T06:11:51.453Z,16.20
2023-12-16T06:12:51.690Z,16.30
2023-12-16T06:13:51.853Z,18.30
2023-12-16T06:14:52.007Z,18.70
2023-12-16T06:16:03.739Z,19.10
2023-12-16T06:16:53.502Z,16.00
2023-12-16T06:17:52.809Z,18.10
2023-12-16T06:18:53.025Z,16.20
2023-12-16T06:19:53.029Z,17.20
2023-12-16T06:20:53.197Z,18.60
2023-12-16T06:21:53.399Z,18.50
2023-12-16T06:22:53.604Z,18.40
2023-12-16T06:23:53.781Z,16.90
2023-12-16T06:24:54.012Z,16.60
2023-12-16T06:25:54.177Z,17.70
2023-12-16T06:26:54.360Z,19.80
2023-12-16T06:27:54.604Z,15.90
2023-12-16T06:28:54.720Z,17.50
2023-12-16T06:29:54.916Z,19.00
2023-12-16T06:30:55.205Z,18.10
2023-12-16T06:31:55.311Z,16.90
2023-12-16T06:32:55.643Z,18.00
2023-12-16T06:33:55.805Z,17.00
2023-12-16T06:34:55.916Z,17.00
2023-12-16T06:35:56.064Z,18.70
2023-12-16T06:36:56.269Z,18.10
2023-12-16T06:37:56.480Z,19.20
2023-12-16T06:38:56.646Z,18.10
2023-12-16T06:39:56.902Z,17.80
2023-12-16T06:40:57.035Z,16.70
2023-12-16T06:41:57.206Z,17.10
2023-12-16T06:42:57.493Z,17.00
2023-12-16T06:43:57.593Z,16.60
2023-12-16T06:44:57.804Z,15.90
2023-12-16T06:46:00.858Z,17.80
2023-12-16T06:46:58.165Z,17.40
2023-12-16T06:47:58.517Z,16.80
2023-12-16T06:48:58.639Z,16.30
2023-12-16T06:49:58.769Z,17.50
2023-12-16T06:50:58.944Z,16.90
2023-12-16T06:51:59.156Z,16.60
2023-12-16T06:52:59.349Z,15.50
2023-12-16T06:53:59.510Z,16.80
2023-12-16T06:54:59.741Z,15.80
2023-12-16T06:55:59.888Z,14.40
2023-12-16T06:57:00.060Z,15.40
2023-12-16T06:58:00.298Z,15.40
2023-12-16T06:59:00.461Z,15.50
2023-12-16T07:00:00.651Z,18.60
2023-12-16T07:01:00.924Z,14.10
2023-12-16T07:02:01.091Z,15.20
2023-12-16T07:03:01.195Z,16.10
2023-12-16T07:04:01.586Z,19.30
2023-12-16T07:05:02.993Z,15.40
2023-12-16T07:06:01.785Z,17.50
2023-12-16T07:07:02.019Z,16.40
2023-12-16T07:08:02.148Z,15.80
2023-12-16T07:09:02.331Z,15.00
2023-12-16T07:10:02.626Z,16.40
2023-12-16T07:11:02.724Z,16.30
2023-12-16T07:12:02.915Z,14.40
2023-12-16T07:13:03.228Z,14.80
2023-12-16T07:14:03.306Z,17.20
2023-12-16T07:15:03.495Z,15.50
2023-12-16T07:16:03.764Z,14.50
2023-12-16T07:17:03.878Z,16.20
2023-12-16T07:18:04.174Z,14.60
2023-12-16T07:19:04.370Z,15.10
2023-12-16T07:20:04.619Z,17.00
2023-12-16T07:21:04.656Z,16.70
2023-12-16T07:22:04.961Z,15.20
2023-12-16T07:23:05.076Z,14.80
2023-12-16T07:24:05.250Z,14.60
2023-12-16T07:25:05.542Z,14.60
2023-12-16T07:26:05.629Z,16.40
2023-12-16T07:27:05.833Z,16.40
2023-12-16T07:28:06.100Z,15.30
2023-12-16T07:29:06.213Z,14.00
2023-12-16T07:30:06.420Z,15.80
2023-12-16T07:31:06.746Z,16.70
2023-12-16T07:32:06.875Z,15.60
2023-12-16T07:33:07.093Z,15.70
2023-12-16T07:34:07.349Z,13.30
2023-12-16T07:35:07.606Z,15.90
2023-12-16T07:36:07.562Z,13.30
2023-12-16T07:37:07.811Z,12.60
2023-12-16T07:38:07.948Z,13.70
2023-12-16T07:39:08.124Z,15.20
2023-12-16T07:40:08.424Z,15.50
2023-12-16T07:41:08.506Z,14.60
2023-12-16T07:42:08.705Z,12.30
2023-12-16T07:43:08.875Z,13.20
2023-12-16T07:44:09.019Z,13.30
2023-12-16T07:45:09.235Z,14.60
2023-12-16T07:46:09.483Z,12.20
2023-12-16T07:47:09.656Z,14.70
2023-12-16T07:48:10.054Z,14.20
2023-12-16T07:49:10.168Z,12.00
2023-12-16T07:50:10.167Z,12.90
2023-12-16T07:51:10.396Z,13.50
2023-12-16T07:52:10.559Z,12.60
2023-12-16T07:53:10.716Z,13.50
2023-12-16T07:54:10.901Z,14.10
2023-12-16T07:55:11.158Z,14.40
2023-12-16T07:56:11.309Z,13.20
2023-12-16T07:57:11.471Z,14.40
2023-12-16T07:58:11.699Z,15.20
2023-12-16T07:59:11.877Z,11.80
2023-12-16T08:00:12.043Z,13.20
2023-12-16T08:01:12.313Z,15.60
2023-12-16T08:02:12.419Z,13.30
2023-12-16T08:03:12.710Z,13.00
2023-12-16T08:04:12.819Z,14.00
2023-12-16T08:05:12.984Z,11.50
2023-12-16T08:06:13.241Z,12.20
2023-12-16T08:07:13.346Z,14.70
2023-12-16T08:08:13.509Z,14.30
2023-12-16T08:09:13.676Z,14.10
2023-12-16T08:10:13.920Z,13.10
2023-12-16T08:11:14.062Z,13.00
2023-12-16T08:12:14.240Z,14.40
2023-12-16T08:13:14.484Z,13.60
2023-12-16T08:14:14.619Z,12.40
2023-12-16T08:15:14.818Z,12.50
2023-12-16T08:16:15.061Z,13.80
2023-12-16T08:17:15.195Z,6.10
2023-12-16T08:18:17.173Z,5.70
2023-12-16T08:19:15.630Z,6.10
2023-12-16T08:20:15.808Z,6.50
2023-12-16T08:21:15.932Z,8.00
2023-12-16T08:22:16.168Z,7.90
2023-12-16T08:23:16.291Z,9.20
2023-12-16T08:24:16.471Z,9.50
2023-12-16T08:25:16.698Z,9.00
2023-12-16T08:26:16.842Z,8.70
2023-12-16T08:27:17.014Z,9.90
2023-12-16T08:28:17.287Z,10.30
2023-12-16T08:29:17.408Z,9.10
2023-12-16T08:30:17.662Z,9.10
2023-12-16T08:31:17.820Z,10.10
2023-12-16T08:32:17.973Z,9.80
2023-12-16T08:33:18.165Z,11.00
2023-12-16T08:34:18.545Z,10.20
2023-12-16T08:35:18.748Z,11.50
2023-12-16T08:36:18.727Z,10.30
2023-12-16T08:37:19.019Z,9.00
2023-12-16T08:38:19.081Z,10.90
2023-12-16T08:39:19.279Z,9.50
2023-12-16T08:40:19.503Z,9.80
2023-12-16T08:41:19.660Z,9.50
2023-12-16T08:42:19.836Z,10.30
2023-12-16T08:43:20.027Z,9.70
2023-12-16T08:44:20.213Z,8.70
2023-12-16T08:45:20.426Z,10.40
2023-12-16T08:46:20.650Z,10.50
2023-12-16T08:47:20.797Z,9.50
2023-12-16T08:48:21.103Z,9.80
2023-12-16T08:49:21.241Z,9.80
2023-12-16T08:50:21.359Z,10.20
2023-12-16T08:51:21.565Z,12.60
2023-12-16T08:52:21.777Z,10.00
2023-12-16T08:53:21.913Z,9.60
2023-12-16T08:54:22.109Z,9.00
2023-12-16T08:55:22.327Z,9.70
2023-12-16T08:56:22.487Z,7.90
2023-12-16T08:57:22.636Z,10.00
2023-12-16T08:58:22.871Z,11.20
2023-12-16T08:59:23.149Z,9.60
2023-12-16T09:00:23.201Z,9.30
2023-12-16T09:01:23.585Z,10.60
2023-12-16T09:02:23.589Z,10.70
2023-12-16T09:03:23.847Z,9.70
2023-12-16T09:04:23.953Z,10.90
2023-12-16T09:05:24.169Z,9.20
2023-12-16T09:06:24.328Z,10.10
2023-12-16T09:07:24.532Z,10.90
2023-12-16T09:08:24.700Z,10.00
2023-12-16T09:09:24.880Z,8.70
2023-12-16T09:10:25.171Z,10.70
2023-12-16T09:11:25.289Z,9.60
2023-12-16T09:12:25.482Z,9.30
2023-12-16T09:13:25.706Z,9.10
2023-12-16T09:14:25.816Z,9.00
2023-12-16T09:15:25.993Z,11.10
2023-12-16T09:16:26.235Z,10.20
2023-12-16T09:17:26.436Z,10.50
2023-12-16T09:18:26.621Z,10.30
2023-12-16T09:19:26.959Z,11.20
2023-12-16T09:20:26.925Z,10.50
2023-12-16T09:21:27.108Z,9.20
2023-12-16T09:22:27.316Z,12.00
2023-12-16T09:23:27.475Z,9.60
2023-12-16T09:24:27.656Z,10.70
2023-12-16T09:25:27.883Z,12.00
2023-12-16T09:26:28.040Z,9.00
2023-12-16T09:27:28.226Z,11.00
2023-12-16T09:28:28.485Z,11.10
2023-12-16T09:29:28.907Z,9.80
2023-12-16T09:30:28.792Z,8.90
2023-12-16T09:31:29.005Z,10.30
2023-12-16T09:32:29.301Z,10.10
2023-12-16T09:33:29.392Z,10.80
2023-12-16T09:34:29.540Z,10.70
2023-12-16T09:35:29.674Z,8.00
2023-12-16T09:36:29.858Z,8.60
2023-12-16T09:37:30.113Z,8.10
2023-12-16T09:38:30.206Z,9.70
2023-12-16T09:39:30.382Z,10.20
2023-12-16T09:40:30.659Z,8.90
2023-12-16T09:41:30.748Z,7.60
2023-12-16T09:42:30.949Z,8.60
2023-12-16T09:43:31.233Z,8.30
2023-12-16T09:44:31.311Z,8.50
2023-12-16T09:45:31.517Z,8.20
2023-12-16T09:46:32.139Z,8.10
2023-12-16T09:47:31.951Z,10.20
2023-12-16T09:48:32.118Z,9.80
2023-12-16T09:49:32.469Z,9.10
2023-12-16T09:50:32.422Z,8.30
2023-12-16T09:51:32.611Z,9.30
2023-12-16T09:52:32.824Z,9.90
2023-12-16T09:53:33.006Z,8.90
2023-12-16T09:54:33.182Z,8.00
2023-12-16T09:55:33.458Z,11.90
2023-12-16T09:56:33.564Z,8.90
2023-12-16T09:57:33.761Z,7.90
2023-12-16T09:58:33.978Z,8.00
2023-12-16T09:59:34.135Z,8.00
2023-12-16T10:00:34.320Z,8.10
2023-12-16T10:01:34.569Z,7.30
2023-12-16T10:02:34.776Z,9.00
2023-12-16T10:03:34.876Z,9.80
2023-12-16T10:04:35.118Z,8.80
2023-12-16T10:05:35.308Z,9.50
2023-12-16T10:06:35.445Z,9.20
2023-12-16T10:07:35.663Z,8.00
2023-12-16T10:08:35.799Z,7.40
2023-12-16T10:09:35.995Z,8.80
2023-12-16T10:10:36.312Z,8.50
2023-12-16T10:11:36.349Z,7.20
2023-12-16T10:12:36.519Z,9.30
2023-12-16T10:13:36.746Z,8.70
2023-12-16T10:14:36.886Z,8.20
2023-12-16T10:15:37.091Z,8.60
2023-12-16T10:16:37.256Z,7.80
2023-12-16T10:17:37.659Z,8.60
2023-12-16T10:18:37.637Z,9.10
2023-12-16T10:19:37.846Z,7.80
2023-12-16T10:20:38.007Z,9.30
2023-12-16T10:21:38.202Z,8.60
2023-12-16T10:22:38.393Z,9.10
2023-12-16T10:23:38.599Z,7.80
2023-12-16T10:24:38.800Z,7.70
2023-12-16T10:25:38.984Z,9.20
2023-12-16T10:26:39.111Z,8.00
2023-12-16T10:27:39.607Z,11.30
2023-12-16T10:28:39.482Z,8.40
2023-12-16T10:29:44.714Z,9.80
2023-12-16T10:30:40.895Z,9.40
2023-12-16T10:31:40.069Z,8.60
2023-12-16T10:32:40.289Z,9.00
2023-12-16T10:33:40.468Z,7.80
2023-12-16T10:34:40.638Z,9.00
2023-12-16T10:35:40.790Z,9.10
2023-12-16T10:36:40.987Z,9.60
2023-12-16T10:37:41.329Z,9.50
2023-12-16T10:38:41.326Z,10.00
2023-12-16T10:39:41.546Z,9.50
2023-12-16T10:40:41.707Z,9.80
2023-12-16T10:41:41.876Z,8.50
2023-12-16T10:42:42.052Z,8.40
2023-12-16T10:43:42.278Z,8.80
2023-12-16T10:44:42.439Z,10.00
2023-12-16T10:45:42.620Z,8.60
2023-12-16T10:46:42.871Z,9.70
2023-12-16T10:47:43.054Z,11.20
2023-12-16T10:48:43.271Z,10.60
2023-12-16T10:49:43.376Z,13.20
2023-12-16T10:50:43.557Z,10.80
2023-12-16T10:51:43.730Z,11.10
2023-12-16T10:52:43.908Z,8.90
2023-12-16T10:53:44.129Z,9.80
2023-12-16T10:54:44.317Z,9.00
2023-12-16T10:55:44.589Z,9.60
2023-12-16T10:56:44.680Z,9.70
2023-12-16T10:57:44.851Z,9.90
2023-12-16T10:58:45.039Z,8.30
2023-12-16T10:59:45.230Z,8.70
2023-12-16T11:00:45.424Z,8.30
2023-12-16T11:01:45.711Z,9.10
2023-12-16T11:02:45.770Z,9.40
2023-12-16T11:03:45.948Z,10.10
2023-12-16T11:04:46.156Z,7.80
2023-12-16T11:05:46.327Z,8.40
2023-12-16T11:06:46.467Z,8.60
2023-12-16T11:07:46.643Z,10.20
2023-12-16T11:08:46.812Z,9.80
2023-12-16T11:09:47.607Z,10.10
2023-12-16T11:10:47.225Z,8.00
2023-12-16T11:11:47.389Z,9.40
2023-12-16T11:12:47.551Z,10.30
2023-12-16T11:13:47.728Z,9.20
2023-12-16T11:14:47.924Z,9.50
2023-12-16T11:15:48.134Z,7.50
2023-12-16T11:16:48.324Z,8.80
2023-12-16T11:17:48.537Z,7.40
2023-12-16T11:18:48.779Z,7.30
2023-12-16T11:20:09.916Z,9.00
2023-12-16T11:20:49.093Z,9.10
2023-12-16T11:21:49.227Z,7.80
2023-12-16T11:22:49.391Z,9.40
2023-12-16T11:23:49.576Z,11.90
2023-12-16T11:24:49.777Z,10.50
2023-12-16T11:25:50.043Z,10.20
2023-12-16T11:26:50.114Z,9.90
2023-12-16T11:27:50.308Z,11.00
2023-12-16T11:28:50.450Z,10.70
2023-12-16T11:29:50.658Z,9.10
2023-12-16T11:30:50.844Z,8.60
2023-12-16T11:31:51.104Z,9.90
2023-12-16T11:32:51.247Z,8.60
2023-12-16T11:33:51.558Z,7.70
2023-12-16T11:34:51.650Z,8.90
2023-12-16T11:35:51.825Z,9.30
2023-12-16T11:36:51.977Z,8.90
2023-12-16T11:37:52.143Z,8.80
2023-12-16T11:38:52.299Z,7.00
2023-12-16T11:39:52.536Z,8.20
2023-12-16T11:40:52.650Z,7.80
2023-12-16T11:41:52.849Z,6.40
2023-12-16T11:42:53.069Z,8.20
2023-12-16T11:43:53.246Z,7.80
2023-12-16T11:44:53.405Z,9.20
2023-12-16T11:45:53.640Z,9.50
2023-12-16T11:46:53.772Z,9.40
2023-12-16T11:47:53.986Z,8.10
2023-12-16T11:48:54.222Z,7.00
2023-12-16T11:49:54.368Z,6.70
2023-12-16T11:50:54.527Z,7.80
2023-12-16T11:51:54.711Z,7.50
2023-12-16T11:52:54.866Z,6.60
2023-12-16T11:53:55.053Z,7.40
2023-12-16T11:54:55.305Z,6.20
2023-12-16T11:55:55.418Z,6.50
2023-12-16T11:56:55.586Z,7.80
2023-12-16T11:57:55.778Z,8.70
2023-12-16T11:58:55.961Z,7.70
2023-12-16T11:59:56.163Z,9.00
2023-12-16T12:00:56.375Z,6.20
2023-12-16T12:01:56.528Z,6.70
2023-12-16T12:02:56.679Z,7.30
2023-12-16T12:03:56.956Z,7.70
2023-12-16T12:04:57.150Z,7.40
2023-12-16T12:05:57.270Z,7.00
2023-12-16T12:06:57.451Z,9.80
2023-12-16T12:07:57.605Z,8.40
2023-12-16T12:08:57.791Z,7.50
2023-12-16T12:09:57.981Z,7.80
2023-12-16T12:10:58.142Z,8.70
2023-12-16T12:11:58.340Z,10.00
2023-12-16T12:12:58.604Z,9.60
2023-12-16T12:13:58.725Z,8.10
2023-12-16T12:14:58.879Z,9.10
2023-12-16T12:15:59.088Z,8.40
2023-12-16T12:16:59.247Z,9.00
2023-12-16T12:17:59.494Z,9.30
2023-12-16T12:18:59.770Z,8.90
2023-12-16T12:19:59.849Z,7.00
2023-12-16T12:21:00.009Z,8.70
2023-12-16T12:22:00.232Z,8.80
2023-12-16T12:23:02.869Z,8.40
2023-12-16T12:24:00.575Z,8.00
2023-12-16T12:25:00.813Z,6.90
2023-12-16T12:26:00.978Z,8.00
2023-12-16T12:27:01.258Z,8.10
2023-12-16T12:28:01.348Z,7.70
2023-12-16T12:29:02.814Z,6.80
2023-12-16T12:30:01.862Z,9.20
2023-12-16T12:31:01.951Z,8.50
2023-12-16T12:32:02.076Z,7.90
2023-12-16T12:33:02.410Z,7.70
2023-12-16T12:34:02.657Z,8.00
2023-12-16T12:35:05.558Z,7.70
2023-12-16T12:36:03.933Z,8.30
2023-12-16T12:37:03.055Z,8.00
2023-12-16T12:38:03.216Z,8.60
2023-12-16T12:39:03.423Z,8.10
2023-12-16T12:40:03.588Z,7.40
2023-12-16T12:41:04.711Z,8.50
2023-12-16T12:42:04.318Z,8.00
2023-12-16T12:43:04.184Z,11.10
2023-12-16T12:44:04.331Z,14.60
2023-12-16T12:45:04.567Z,13.40
2023-12-16T12:46:04.661Z,11.70
2023-12-16T12:47:04.857Z,10.30
2023-12-16T12:48:05.117Z,13.30
2023-12-16T12:49:05.314Z,10.40
2023-12-16T12:50:05.366Z,12.80
2023-12-16T12:51:05.664Z,10.30
2023-12-16T12:52:05.769Z,10.20
2023-12-16T12:53:20.247Z,10.30
2023-12-16T12:54:07.212Z,11.20
2023-12-16T12:55:06.339Z,12.80
2023-12-16T12:56:06.517Z,10.30
2023-12-16T12:57:06.709Z,9.60
2023-12-16T12:58:11.506Z,9.90
2023-12-16T12:59:57.273Z,9.20
2023-12-16T13:01:08.099Z,10.80
2023-12-16T13:02:07.610Z,8.80
2023-12-16T13:03:07.894Z,10.20
2023-12-16T13:04:08.016Z,9.40